To NAV CANADA Home Page Login to a new session Search on AWWS site Feedback and Comments Disclaimer Vers la page française équivalente Tips FAQ What's new on the site To the Forecasts and Observations / NOTAM section To "File a Flight Plan" website Publications and other links Update of the User's profile FIC Telephone Numbers My Weather Data Folder Route Weather Data Regional Weather Data Local Weather Data To the Forecasts and Observations / NOTAM section
Request Generated 05/27/2015 at 05:35:26 UTC . Weather information available at that time is displayed.

METAR/TAF

BRANDON/BRANDON MUNICIPALITY/MB    

METAR CYBR 270500Z 07008KT 15SM SCT100 15/10 A2983 RMK AC4 SLP103
DENSITY ALT 1800FT=
SPECI CYBR 270418Z 12004KT 15SM BKN100 BKN140 18/11 A2983 RMK AC5AC2
SLP103 DENSITY ALT 2100FT=
METAR CYBR 270400Z 03008KT 340V040 15SM -SHRA BKN100 OVC140 17/12
A2985 RMK AC5AC3 CVCTV CLD EMBD PRESFR SLP108 DENSITY ALT 1900FT=
SPECI CYBR 270349Z 31006G16KT 15SM -SHRA BKN100 OVC240 17/12 A2986
RMK AC6CI2 CVCTV CLD EMBD SLP111 DENSITY ALT 2000FT=
METAR CYBR 270300Z 08004KT 15SM BKN100 OVC240 19/08 A2982 RMK AC6CI2
SLP099 DENSITY ALT 2100FT=

TAF AMD CYBR 270313Z 2703/2712 34012KT P6SM BKN100CB TEMPO 2703/2705
VRB20G30KT 6SM TSRA
FM270500 06008KT P6SM SCT090
RMK NXT FCST BY 270600Z=
Your time UTC time
Weather data provided by Environment Canada and NAV CANADA